sensor_id;sensor_type;location;lat;lon;timestamp;pressure;altitude;pressure_sealevel;temperature;humidity
14790;BME280;7486;51.010;10.366;2022-10-20T00:00:21;99021.66;;;3.45;76.63
14790;BME280;7486;51.010;10.366;2022-10-20T00:02:48;99033.66;;;3.19;77.93
14790;BME280;7486;51.010;10.366;2022-10-20T00:05:14;99018.94;;;2.89;79.71
14790;BME280;7486;51.010;10.366;2022-10-20T00:07:41;99007.75;;;2.78;81.08
14790;BME280;7486;51.010;10.366;2022-10-20T00:10:08;99018.81;;;2.91;81.31
14790;BME280;7486;51.010;10.366;2022-10-20T00:12:35;99014.38;;;2.82;81.39
14790;BME280;7486;51.010;10.366;2022-10-20T00:15:02;99014.38;;;2.82;81.73
14790;BME280;7486;51.010;10.366;2022-10-20T00:17:29;99007.25;;;2.84;82.02
14790;BME280;7486;51.010;10.366;2022-10-20T00:19:55;99020.03;;;2.77;81.69
14790;BME280;7486;51.010;10.366;2022-10-20T00:22:22;99021.00;;;2.86;81.32
14790;BME280;7486;51.010;10.366;2022-10-20T00:24:50;99019.06;;;3.07;81.99
14790;BME280;7486;51.010;10.366;2022-10-20T00:27:17;99010.09;;;3.19;80.11
14790;BME280;7486;51.010;10.366;2022-10-20T00:29:46;99015.75;;;3.24;78.95
14790;BME280;7486;51.010;10.366;2022-10-20T00:32:13;99013.28;;;3.13;78.55
14790;BME280;7486;51.010;10.366;2022-10-20T00:34:39;99004.22;;;2.98;78.71
14790;BME280;7486;51.010;10.366;2022-10-20T00:37:06;99015.22;;;3.11;78.71
14790;BME280;7486;51.010;10.366;2022-10-20T00:39:33;99014.41;;;3.01;78.28
14790;BME280;7486;51.010;10.366;2022-10-20T00:42:03;99009.44;;;2.79;79.01
14790;BME280;7486;51.010;10.366;2022-10-20T00:45:05;99011.34;;;2.57;79.23
14790;BME280;7486;51.010;10.366;2022-10-20T00:47:38;99008.44;;;2.41;80.08
14790;BME280;7486;51.010;10.366;2022-10-20T00:50:10;99014.56;;;2.21;80.64
14790;BME280;7486;51.010;10.366;2022-10-20T00:52:38;99006.56;;;2.13;80.83
14790;BME280;7486;51.010;10.366;2022-10-20T00:55:07;98999.94;;;2.09;81.17
14790;BME280;7486;51.010;10.366;2022-10-20T00:57:35;98998.78;;;1.92;80.78
14790;BME280;7486;51.010;10.366;2022-10-20T01:00:05;98995.31;;;1.82;82.13
14790;BME280;7486;51.010;10.366;2022-10-20T01:02:32;98994.94;;;1.87;81.62
14790;BME280;7486;51.010;10.366;2022-10-20T01:04:58;98988.22;;;1.94;81.78
14790;BME280;7486;51.010;10.366;2022-10-20T01:07:25;98982.47;;;2.00;81.71
14790;BME280;7486;51.010;10.366;2022-10-20T01:09:52;98981.44;;;2.22;81.77
14790;BME280;7486;51.010;10.366;2022-10-20T01:12:34;98982.00;;;2.35;81.10
14790;BME280;7486;51.010;10.366;2022-10-20T01:18:00;98975.78;;;2.26;81.14
14790;BME280;7486;51.010;10.366;2022-10-20T01:20:48;98975.66;;;2.37;80.90
14790;BME280;7486;51.010;10.366;2022-10-20T01:28:46;98960.56;;;2.60;79.60
14790;BME280;7486;51.010;10.366;2022-10-20T01:31:27;98947.72;;;2.57;77.37
14790;BME280;7486;51.010;10.366;2022-10-20T01:33:57;98952.41;;;2.53;77.78
14790;BME280;7486;51.010;10.366;2022-10-20T01:36:34;98926.97;;;2.36;78.10
14790;BME280;7486;51.010;10.366;2022-10-20T01:39:11;98938.53;;;2.53;78.00
14790;BME280;7486;51.010;10.366;2022-10-20T01:41:45;98909.63;;;2.35;78.24
14790;BME280;7486;51.010;10.366;2022-10-20T01:44:16;98932.03;;;2.57;78.26
14790;BME280;7486;51.010;10.366;2022-10-20T01:46:44;98931.63;;;2.61;78.04
14790;BME280;7486;51.010;10.366;2022-10-20T01:49:12;98929.19;;;2.60;77.83
14790;BME280;7486;51.010;10.366;2022-10-20T01:51:40;98920.06;;;2.54;77.62
14790;BME280;7486;51.010;10.366;2022-10-20T01:54:38;98921.59;;;2.57;77.32
14790;BME280;7486;51.010;10.366;2022-10-20T01:57:34;98925.88;;;2.48;77.69
14790;BME280;7486;51.010;10.366;2022-10-20T02:00:08;98921.03;;;2.44;77.77
14790;BME280;7486;51.010;10.366;2022-10-20T02:08:17;98911.53;;;2.04;79.33
14790;BME280;7486;51.010;10.366;2022-10-20T02:10:49;98907.78;;;1.97;79.59
14790;BME280;7486;51.010;10.366;2022-10-20T02:13:19;98900.91;;;1.87;80.07
14790;BME280;7486;51.010;10.366;2022-10-20T02:15:52;98899.78;;;1.80;79.88
14790;BME280;7486;51.010;10.366;2022-10-20T02:18:25;98895.06;;;1.64;80.45
14790;BME280;7486;51.010;10.366;2022-10-20T02:20:54;98895.47;;;1.59;80.85
14790;BME280;7486;51.010;10.366;2022-10-20T02:23:22;98885.44;;;1.64;81.72
14790;BME280;7486;51.010;10.366;2022-10-20T02:25:50;98873.91;;;1.67;80.27
14790;BME280;7486;51.010;10.366;2022-10-20T02:28:18;98878.44;;;1.75;80.47
14790;BME280;7486;51.010;10.366;2022-10-20T02:30:46;98881.50;;;1.80;80.14
14790;BME280;7486;51.010;10.366;2022-10-20T02:33:15;98882.81;;;1.64;80.36
14790;BME280;7486;51.010;10.366;2022-10-20T02:35:55;98877.19;;;1.69;79.63
14790;BME280;7486;51.010;10.366;2022-10-20T02:38:22;98875.41;;;1.60;80.67
14790;BME280;7486;51.010;10.366;2022-10-20T02:40:49;98870.31;;;1.58;80.92
14790;BME280;7486;51.010;10.366;2022-10-20T02:43:16;98864.22;;;1.48;80.64
14790;BME280;7486;51.010;10.366;2022-10-20T02:45:42;98865.03;;;1.39;80.40
14790;BME280;7486;51.010;10.366;2022-10-20T02:48:09;98870.78;;;1.33;80.76
14790;BME280;7486;51.010;10.366;2022-10-20T02:50:36;98872.34;;;1.15;81.46
14790;BME280;7486;51.010;10.366;2022-10-20T02:53:04;98868.41;;;1.30;81.35
14790;BME280;7486;51.010;10.366;2022-10-20T02:55:30;98872.69;;;1.31;81.35
14790;BME280;7486;51.010;10.366;2022-10-20T02:57:57;98858.66;;;1.23;80.86
14790;BME280;7486;51.010;10.366;2022-10-20T03:00:24;98858.31;;;1.46;80.56
14790;BME280;7486;51.010;10.366;2022-10-20T03:02:51;98856.69;;;1.64;79.23
14790;BME280;7486;51.010;10.366;2022-10-20T03:05:18;98857.81;;;1.62;78.81
14790;BME280;7486;51.010;10.366;2022-10-20T03:07:45;98860.16;;;1.65;79.29
14790;BME280;7486;51.010;10.366;2022-10-20T03:10:11;98864.41;;;1.56;79.40
14790;BME280;7486;51.010;10.366;2022-10-20T03:12:38;98860.66;;;1.40;79.87
14790;BME280;7486;51.010;10.366;2022-10-20T03:15:05;98859.25;;;1.36;80.45
14790;BME280;7486;51.010;10.366;2022-10-20T03:17:31;98860.66;;;1.40;80.60
14790;BME280;7486;51.010;10.366;2022-10-20T03:19:58;98859.63;;;1.31;80.77
14790;BME280;7486;51.010;10.366;2022-10-20T03:22:25;98857.81;;;1.22;80.97
14790;BME280;7486;51.010;10.366;2022-10-20T03:24:51;98857.69;;;1.24;81.20
14790;BME280;7486;51.010;10.366;2022-10-20T03:27:18;98850.88;;;1.02;81.08
14790;BME280;7486;51.010;10.366;2022-10-20T03:29:45;98845.91;;;0.99;82.37
14790;BME280;7486;51.010;10.366;2022-10-20T03:32:11;98849.66;;;1.06;82.75
14790;BME280;7486;51.010;10.366;2022-10-20T03:34:38;98849.78;;;1.04;82.95
14790;BME280;7486;51.010;10.366;2022-10-20T03:37:05;98848.94;;;1.04;82.42
14790;BME280;7486;51.010;10.366;2022-10-20T03:39:31;98840.44;;;1.02;82.80
14790;BME280;7486;51.010;10.366;2022-10-20T03:41:58;98837.69;;;1.03;82.78
14790;BME280;7486;51.010;10.366;2022-10-20T03:44:24;98821.94;;;1.15;81.88
14790;BME280;7486;51.010;10.366;2022-10-20T03:46:51;98830.09;;;1.31;81.95
14790;BME280;7486;51.010;10.366;2022-10-20T03:49:17;98833.38;;;1.23;81.37
14790;BME280;7486;51.010;10.366;2022-10-20T03:51:44;98820.81;;;1.47;81.26
14790;BME280;7486;51.010;10.366;2022-10-20T03:54:10;98811.19;;;1.48;80.86
14790;BME280;7486;51.010;10.366;2022-10-20T03:56:37;98803.09;;;1.51;80.58
14790;BME280;7486;51.010;10.366;2022-10-20T03:59:03;98807.34;;;1.52;80.26
14790;BME280;7486;51.010;10.366;2022-10-20T04:01:31;98812.03;;;1.48;80.16
14790;BME280;7486;51.010;10.366;2022-10-20T04:03:58;98801.00;;;1.45;80.20
14790;BME280;7486;51.010;10.366;2022-10-20T04:06:25;98791.41;;;1.45;79.77
14790;BME280;7486;51.010;10.366;2022-10-20T04:08:52;98800.50;;;1.60;79.96
14790;BME280;7486;51.010;10.366;2022-10-20T04:11:18;98795.50;;;1.29;79.23
14790;BME280;7486;51.010;10.366;2022-10-20T04:13:45;98797.34;;;1.07;80.40
14790;BME280;7486;51.010;10.366;2022-10-20T04:16:12;98798.91;;;0.69;81.69
14790;BME280;7486;51.010;10.366;2022-10-20T04:18:38;98794.09;;;0.64;82.98
14790;BME280;7486;51.010;10.366;2022-10-20T04:21:05;98788.38;;;0.70;82.95
14790;BME280;7486;51.010;10.366;2022-10-20T04:23:31;98789.25;;;0.59;82.68
14790;BME280;7486;51.010;10.366;2022-10-20T04:25:58;98784.28;;;0.77;83.17
14790;BME280;7486;51.010;10.366;2022-10-20T04:28:25;98789.63;;;0.55;83.40
14790;BME280;7486;51.010;10.366;2022-10-20T04:30:51;98788.03;;;0.33;84.62
14790;BME280;7486;51.010;10.366;2022-10-20T04:33:18;98785.47;;;0.43;84.92
14790;BME280;7486;51.010;10.366;2022-10-20T04:35:45;98774.66;;;0.47;85.42
14790;BME280;7486;51.010;10.366;2022-10-20T04:38:11;98787.38;;;0.61;85.76
14790;BME280;7486;51.010;10.366;2022-10-20T04:40:38;98780.56;;;0.49;84.95
14790;BME280;7486;51.010;10.366;2022-10-20T04:43:04;98773.47;;;0.10;85.77
14790;BME280;7486;51.010;10.366;2022-10-20T04:45:31;98772.44;;;0.01;87.21
14790;BME280;7486;51.010;10.366;2022-10-20T04:47:58;98777.63;;;0.01;87.98
14790;BME280;7486;51.010;10.366;2022-10-20T04:50:24;98772.97;;;0.16;88.27
14790;BME280;7486;51.010;10.366;2022-10-20T04:53:05;98775.41;;;0.18;87.76
14790;BME280;7486;51.010;10.366;2022-10-20T04:55:32;98733.31;;;-0.08;87.53
14790;BME280;7486;51.010;10.366;2022-10-20T04:57:58;98769.94;;;0.21;88.03
14790;BME280;7486;51.010;10.366;2022-10-20T05:00:25;98757.44;;;0.15;87.02
14790;BME280;7486;51.010;10.366;2022-10-20T05:02:52;98751.59;;;0.22;87.36
14790;BME280;7486;51.010;10.366;2022-10-20T05:05:19;98751.38;;;0.55;85.42
14790;BME280;7486;51.010;10.366;2022-10-20T05:07:46;98745.06;;;0.79;84.79
14790;BME280;7486;51.010;10.366;2022-10-20T05:10:13;98754.38;;;0.51;84.21
14790;BME280;7486;51.010;10.366;2022-10-20T05:12:39;98709.91;;;0.22;84.37
14790;BME280;7486;51.010;10.366;2022-10-20T05:15:06;98746.56;;;0.51;85.82
14790;BME280;7486;51.010;10.366;2022-10-20T05:17:33;98745.03;;;0.48;85.12
14790;BME280;7486;51.010;10.366;2022-10-20T05:20:00;98736.56;;;0.56;86.34
14790;BME280;7486;51.010;10.366;2022-10-20T05:22:26;98736.41;;;0.48;86.00
14790;BME280;7486;51.010;10.366;2022-10-20T05:24:53;98732.53;;;0.42;86.01
14790;BME280;7486;51.010;10.366;2022-10-20T05:27:19;98725.16;;;0.47;86.91
14790;BME280;7486;51.010;10.366;2022-10-20T05:29:46;98728.63;;;0.57;86.40
14790;BME280;7486;51.010;10.366;2022-10-20T05:32:13;98725.44;;;0.54;86.71
14790;BME280;7486;51.010;10.366;2022-10-20T05:34:42;98735.91;;;0.63;86.91
14790;BME280;7486;51.010;10.366;2022-10-20T05:37:09;98731.50;;;0.54;86.73
14790;BME280;7486;51.010;10.366;2022-10-20T05:39:35;98733.13;;;0.55;86.93
14790;BME280;7486;51.010;10.366;2022-10-20T05:42:02;98730.69;;;0.33;87.75
14790;BME280;7486;51.010;10.366;2022-10-20T05:44:29;98726.38;;;0.23;88.36
14790;BME280;7486;51.010;10.366;2022-10-20T05:46:55;98724.97;;;0.19;89.85
14790;BME280;7486;51.010;10.366;2022-10-20T05:49:22;98729.09;;;0.21;90.25
14790;BME280;7486;51.010;10.366;2022-10-20T05:51:48;98722.47;;;0.38;89.77
14790;BME280;7486;51.010;10.366;2022-10-20T05:54:15;98719.94;;;0.47;89.73
14790;BME280;7486;51.010;10.366;2022-10-20T05:56:42;98712.25;;;0.25;88.72
14790;BME280;7486;51.010;10.366;2022-10-20T05:59:09;98715.31;;;0.60;89.19
14790;BME280;7486;51.010;10.366;2022-10-20T06:01:36;98710.22;;;0.89;87.89
14790;BME280;7486;51.010;10.366;2022-10-20T06:04:03;98711.66;;;0.73;86.74
14790;BME280;7486;51.010;10.366;2022-10-20T06:06:30;98717.50;;;0.86;87.30
14790;BME280;7486;51.010;10.366;2022-10-20T06:08:58;98721.53;;;0.69;87.33
14790;BME280;7486;51.010;10.366;2022-10-20T06:11:26;98720.00;;;0.67;88.54
14790;BME280;7486;51.010;10.366;2022-10-20T06:13:53;98714.38;;;0.92;88.44
14790;BME280;7486;51.010;10.366;2022-10-20T06:16:22;98710.66;;;0.94;87.43
14790;BME280;7486;51.010;10.366;2022-10-20T06:18:49;98720.97;;;0.96;87.03
14790;BME280;7486;51.010;10.366;2022-10-20T06:21:18;98721.41;;;0.71;86.47
14790;BME280;7486;51.010;10.366;2022-10-20T06:23:46;98719.63;;;0.71;87.44
14790;BME280;7486;51.010;10.366;2022-10-20T06:26:14;98724.66;;;0.63;87.68
14790;BME280;7486;51.010;10.366;2022-10-20T06:28:45;98719.75;;;0.70;87.98
14790;BME280;7486;51.010;10.366;2022-10-20T06:31:20;98714.72;;;0.78;87.06
14790;BME280;7486;51.010;10.366;2022-10-20T06:33:47;98722.13;;;0.82;86.61
14790;BME280;7486;51.010;10.366;2022-10-20T06:36:15;98716.09;;;0.82;86.18
14790;BME280;7486;51.010;10.366;2022-10-20T06:38:42;98712.44;;;0.94;87.38
14790;BME280;7486;51.010;10.366;2022-10-20T06:41:11;98701.13;;;0.84;87.26
14790;BME280;7486;51.010;10.366;2022-10-20T06:43:38;98709.50;;;0.47;87.93
14790;BME280;7486;51.010;10.366;2022-10-20T06:46:06;98706.31;;;0.74;88.15
14790;BME280;7486;51.010;10.366;2022-10-20T06:48:34;98705.31;;;0.66;87.96
14790;BME280;7486;51.010;10.366;2022-10-20T06:51:05;98710.16;;;0.70;89.11
14790;BME280;7486;51.010;10.366;2022-10-20T06:53:33;98705.59;;;0.62;89.07
14790;BME280;7486;51.010;10.366;2022-10-20T06:56:05;98706.44;;;0.73;89.00
14790;BME280;7486;51.010;10.366;2022-10-20T06:58:34;98703.56;;;0.76;89.64
14790;BME280;7486;51.010;10.366;2022-10-20T07:03:37;98676.13;;;1.21;89.82
14790;BME280;7486;51.010;10.366;2022-10-20T07:06:05;98687.09;;;1.25;87.78
14790;BME280;7486;51.010;10.366;2022-10-20T07:08:33;98672.16;;;1.36;88.86
14790;BME280;7486;51.010;10.366;2022-10-20T07:11:10;98679.31;;;1.53;88.97
14790;BME280;7486;51.010;10.366;2022-10-20T07:13:37;98679.72;;;1.58;89.70
14790;BME280;7486;51.010;10.366;2022-10-20T07:16:06;98671.59;;;1.61;89.68
14790;BME280;7486;51.010;10.366;2022-10-20T07:18:34;98686.03;;;1.66;89.98
14790;BME280;7486;51.010;10.366;2022-10-20T07:21:04;98683.66;;;1.82;90.32
14790;BME280;7486;51.010;10.366;2022-10-20T07:23:31;98679.25;;;1.92;89.75
14790;BME280;7486;51.010;10.366;2022-10-20T07:28:36;98655.94;;;1.81;88.93
14790;BME280;7486;51.010;10.366;2022-10-20T07:31:11;98663.88;;;1.89;89.53
14790;BME280;7486;51.010;10.366;2022-10-20T07:33:38;98656.97;;;2.07;89.30
14790;BME280;7486;51.010;10.366;2022-10-20T07:36:13;98645.13;;;2.03;88.94
14790;BME280;7486;51.010;10.366;2022-10-20T07:38:40;98638.28;;;2.02;89.89
14790;BME280;7486;51.010;10.366;2022-10-20T07:41:07;98647.25;;;1.90;90.43
14790;BME280;7486;51.010;10.366;2022-10-20T07:43:35;98620.41;;;1.97;90.16
14790;BME280;7486;51.010;10.366;2022-10-20T07:46:02;98646.88;;;2.22;89.30
14790;BME280;7486;51.010;10.366;2022-10-20T07:48:29;98651.94;;;2.33;89.67
14790;BME280;7486;51.010;10.366;2022-10-20T07:53:41;98654.81;;;2.39;89.99
14790;BME280;7486;51.010;10.366;2022-10-20T07:56:08;98651.91;;;2.42;89.92
14790;BME280;7486;51.010;10.366;2022-10-20T07:58:35;98647.53;;;2.33;90.85
14790;BME280;7486;51.010;10.366;2022-10-20T08:01:03;98654.97;;;2.65;89.72
14790;BME280;7486;51.010;10.366;2022-10-20T08:03:30;98649.88;;;2.91;89.39
14790;BME280;7486;51.010;10.366;2022-10-20T08:05:56;98637.81;;;2.80;89.29
14790;BME280;7486;51.010;10.366;2022-10-20T08:08:23;98654.06;;;3.01;89.20
14790;BME280;7486;51.010;10.366;2022-10-20T08:10:50;98655.47;;;2.96;89.31
14790;BME280;7486;51.010;10.366;2022-10-20T08:13:17;98666.56;;;3.07;89.26
14790;BME280;7486;51.010;10.366;2022-10-20T08:15:43;98613.00;;;3.02;89.21
14790;BME280;7486;51.010;10.366;2022-10-20T08:18:17;98651.50;;;3.37;89.00
14790;BME280;7486;51.010;10.366;2022-10-20T08:20:48;98649.53;;;3.56;88.58
14790;BME280;7486;51.010;10.366;2022-10-20T08:23:15;98640.56;;;3.77;87.50
14790;BME280;7486;51.010;10.366;2022-10-20T08:25:42;98646.88;;;3.92;87.14
14790;BME280;7486;51.010;10.366;2022-10-20T08:28:09;98631.94;;;4.10;86.04
14790;BME280;7486;51.010;10.366;2022-10-20T08:30:36;98628.03;;;4.14;86.10
14790;BME280;7486;51.010;10.366;2022-10-20T08:33:02;98638.72;;;4.21;85.50
14790;BME280;7486;51.010;10.366;2022-10-20T08:35:29;98638.16;;;4.35;85.21
14790;BME280;7486;51.010;10.366;2022-10-20T08:37:57;98631.50;;;4.48;84.82
14790;BME280;7486;51.010;10.366;2022-10-20T08:40:27;98634.75;;;4.50;84.42
14790;BME280;7486;51.010;10.366;2022-10-20T08:42:56;98632.25;;;4.75;85.52
14790;BME280;7486;51.010;10.366;2022-10-20T08:45:25;98635.50;;;4.77;83.64
14790;BME280;7486;51.010;10.366;2022-10-20T08:47:54;98626.16;;;4.74;83.66
14790;BME280;7486;51.010;10.366;2022-10-20T08:50:21;98611.53;;;4.63;83.59
14790;BME280;7486;51.010;10.366;2022-10-20T08:52:52;98610.59;;;4.81;83.98
14790;BME280;7486;51.010;10.366;2022-10-20T08:55:25;98594.75;;;5.06;83.95
14790;BME280;7486;51.010;10.366;2022-10-20T08:57:57;98609.09;;;5.28;83.14
14790;BME280;7486;51.010;10.366;2022-10-20T09:00:25;98605.34;;;5.31;83.91
14790;BME280;7486;51.010;10.366;2022-10-20T09:02:52;98609.44;;;5.57;82.20
14790;BME280;7486;51.010;10.366;2022-10-20T09:05:23;98611.06;;;5.75;79.62
14790;BME280;7486;51.010;10.366;2022-10-20T09:07:51;98479.09;;;5.00;81.04
14790;BME280;7486;51.010;10.366;2022-10-20T09:10:32;98597.59;;;5.69;80.70
14790;BME280;7486;51.010;10.366;2022-10-20T09:13:02;98586.75;;;5.89;80.51
14790;BME280;7486;51.010;10.366;2022-10-20T09:15:32;98593.91;;;6.19;79.71
14790;BME280;7486;51.010;10.366;2022-10-20T09:18:02;98591.22;;;6.35;78.20
14790;BME280;7486;51.010;10.366;2022-10-20T09:20:33;98554.31;;;6.04;77.62
14790;BME280;7486;51.010;10.366;2022-10-20T09:23:01;98595.50;;;6.36;78.54
14790;BME280;7486;51.010;10.366;2022-10-20T09:25:42;98590.72;;;6.79;78.22
14790;BME280;7486;51.010;10.366;2022-10-20T09:28:35;98587.09;;;7.02;78.81
14790;BME280;7486;51.010;10.366;2022-10-20T09:31:30;98585.88;;;7.13;76.62
14790;BME280;7486;51.010;10.366;2022-10-20T09:33:58;98569.47;;;7.11;76.75
14790;BME280;7486;51.010;10.366;2022-10-20T09:36:29;98560.66;;;6.96;76.39
14790;BME280;7486;51.010;10.366;2022-10-20T09:38:59;98599.56;;;7.39;76.40
14790;BME280;7486;51.010;10.366;2022-10-20T09:41:30;98584.88;;;7.37;74.38
14790;BME280;7486;51.010;10.366;2022-10-20T09:44:00;98584.69;;;7.46;73.23
14790;BME280;7486;51.010;10.366;2022-10-20T09:46:31;98586.69;;;7.59;75.43
14790;BME280;7486;51.010;10.366;2022-10-20T09:48:59;98565.91;;;7.79;70.97
14790;BME280;7486;51.010;10.366;2022-10-20T09:51:27;98555.56;;;7.77;72.92
14790;BME280;7486;51.010;10.366;2022-10-20T09:53:59;98547.28;;;7.80;70.67
14790;BME280;7486;51.010;10.366;2022-10-20T09:56:45;98552.28;;;7.90;72.69
14790;BME280;7486;51.010;10.366;2022-10-20T09:59:21;98559.69;;;8.09;73.04
14790;BME280;7486;51.010;10.366;2022-10-20T10:02:01;98543.00;;;8.08;73.14
14790;BME280;7486;51.010;10.366;2022-10-20T10:04:30;98540.03;;;8.26;72.65
14790;BME280;7486;51.010;10.366;2022-10-20T10:06:57;98510.19;;;8.26;71.16
14790;BME280;7486;51.010;10.366;2022-10-20T10:14:30;98530.72;;;8.81;71.15
14790;BME280;7486;51.010;10.366;2022-10-20T10:16:58;98528.75;;;8.83;71.60
14790;BME280;7486;51.010;10.366;2022-10-20T10:19:28;98514.41;;;9.13;71.13
14790;BME280;7486;51.010;10.366;2022-10-20T10:22:02;98500.22;;;9.42;70.49
14790;BME280;7486;51.010;10.366;2022-10-20T10:24:32;98502.13;;;9.27;68.69
14790;BME280;7486;51.010;10.366;2022-10-20T10:27:02;98506.91;;;9.16;69.39
14790;BME280;7486;51.010;10.366;2022-10-20T10:29:37;98478.69;;;8.96;70.86
14790;BME280;7486;51.010;10.366;2022-10-20T10:32:15;98494.03;;;9.07;71.62
14790;BME280;7486;51.010;10.366;2022-10-20T10:37:30;98441.19;;;8.86;71.46
14790;BME280;7486;51.010;10.366;2022-10-20T10:40:13;98479.56;;;9.03;70.33
14790;BME280;7486;51.010;10.366;2022-10-20T10:53:58;98462.28;;;9.00;71.38
14790;BME280;7486;51.010;10.366;2022-10-20T10:56:34;98446.06;;;9.31;69.81
14790;BME280;7486;51.010;10.366;2022-10-20T10:59:28;98450.00;;;8.93;70.76
14790;BME280;7486;51.010;10.366;2022-10-20T11:08:16;98479.34;;;9.26;71.25
14790;BME280;7486;51.010;10.366;2022-10-20T11:11:08;98475.63;;;9.41;71.97
14790;BME280;7486;51.010;10.366;2022-10-20T11:14:05;98463.84;;;9.71;71.12
14790;BME280;7486;51.010;10.366;2022-10-20T11:17:05;98448.94;;;9.36;70.98
14790;BME280;7486;51.010;10.366;2022-10-20T11:19:56;98453.47;;;9.42;70.77
14790;BME280;7486;51.010;10.366;2022-10-20T11:25:15;98441.47;;;9.74;69.49
14790;BME280;7486;51.010;10.366;2022-10-20T11:27:48;98439.13;;;9.30;69.76
14790;BME280;7486;51.010;10.366;2022-10-20T11:30:17;98439.63;;;9.19;70.79
14790;BME280;7486;51.010;10.366;2022-10-20T11:32:54;98441.75;;;9.30;71.92
14790;BME280;7486;51.010;10.366;2022-10-20T11:35:44;98449.25;;;9.48;71.08
14790;BME280;7486;51.010;10.366;2022-10-20T11:38:24;98451.84;;;9.41;70.57
14790;BME280;7486;51.010;10.366;2022-10-20T11:40:58;98430.47;;;9.70;70.14
14790;BME280;7486;51.010;10.366;2022-10-20T11:43:36;98434.50;;;9.66;70.00
14790;BME280;7486;51.010;10.366;2022-10-20T12:11:06;98399.94;;;10.22;66.10
14790;BME280;7486;51.010;10.366;2022-10-20T12:24:41;98380.66;;;10.48;66.98
14790;BME280;7486;51.010;10.366;2022-10-20T12:34:57;98354.63;;;10.97;67.61
14790;BME280;7486;51.010;10.366;2022-10-20T12:39:52;98322.59;;;11.18;63.50
14790;BME280;7486;51.010;10.366;2022-10-20T12:42:22;98347.28;;;11.19;64.85
14790;BME280;7486;51.010;10.366;2022-10-20T12:44:53;98344.63;;;11.19;65.00
14790;BME280;7486;51.010;10.366;2022-10-20T12:47:27;98349.25;;;11.30;63.65
14790;BME280;7486;51.010;10.366;2022-10-20T12:49:59;98359.47;;;11.33;64.84
14790;BME280;7486;51.010;10.366;2022-10-20T12:52:29;98323.63;;;11.04;64.25
14790;BME280;7486;51.010;10.366;2022-10-20T12:55:14;98365.97;;;11.50;64.84
14790;BME280;7486;51.010;10.366;2022-10-20T12:57:43;98374.31;;;11.47;64.70
14790;BME280;7486;51.010;10.366;2022-10-20T13:12:52;98362.31;;;12.40;64.20
14790;BME280;7486;51.010;10.366;2022-10-20T13:15:20;98365.50;;;12.55;64.02
14790;BME280;7486;51.010;10.366;2022-10-20T13:17:55;98358.25;;;12.69;63.83
14790;BME280;7486;51.010;10.366;2022-10-20T13:20:35;98369.38;;;12.59;63.53
14790;BME280;7486;51.010;10.366;2022-10-20T13:23:09;98360.66;;;12.46;63.01
14790;BME280;7486;51.010;10.366;2022-10-20T13:28:22;98368.34;;;12.60;63.46
14790;BME280;7486;51.010;10.366;2022-10-20T13:33:25;98369.09;;;12.67;63.05
14790;BME280;7486;51.010;10.366;2022-10-20T13:36:47;98363.16;;;12.72;63.80
14790;BME280;7486;51.010;10.366;2022-10-20T13:45:04;98347.69;;;12.87;64.05
14790;BME280;7486;51.010;10.366;2022-10-20T13:50:33;98330.81;;;12.44;63.56
14790;BME280;7486;51.010;10.366;2022-10-20T13:53:18;98312.63;;;11.07;66.08
14790;BME280;7486;51.010;10.366;2022-10-20T13:56:07;98278.00;;;10.83;68.07
14790;BME280;7486;51.010;10.366;2022-10-20T13:59:17;98259.47;;;10.69;67.16
14790;BME280;7486;51.010;10.366;2022-10-20T14:02:26;98253.19;;;10.57;68.58
14790;BME280;7486;51.010;10.366;2022-10-20T14:05:09;98267.44;;;10.56;70.02
14790;BME280;7486;51.010;10.366;2022-10-20T14:07:42;98285.34;;;10.67;69.79
14790;BME280;7486;51.010;10.366;2022-10-20T14:10:23;98336.25;;;10.37;71.52
14790;BME280;7486;51.010;10.366;2022-10-20T14:12:53;98355.06;;;10.61;71.25
14790;BME280;7486;51.010;10.366;2022-10-20T14:15:29;98344.84;;;10.91;70.52
14790;BME280;7486;51.010;10.366;2022-10-20T14:20:58;98364.31;;;10.31;73.13
14790;BME280;7486;51.010;10.366;2022-10-20T14:23:32;98364.63;;;10.95;70.65
14790;BME280;7486;51.010;10.366;2022-10-20T14:26:12;98353.16;;;11.28;69.67
14790;BME280;7486;51.010;10.366;2022-10-20T14:28:42;98349.88;;;11.32;69.10
14790;BME280;7486;51.010;10.366;2022-10-20T14:31:11;98341.88;;;11.58;68.65
14790;BME280;7486;51.010;10.366;2022-10-20T14:33:46;98340.22;;;11.70;68.22
14790;BME280;7486;51.010;10.366;2022-10-20T14:36:25;98329.59;;;11.70;67.14
14790;BME280;7486;51.010;10.366;2022-10-20T14:38:57;98331.41;;;11.77;66.54
14790;BME280;7486;51.010;10.366;2022-10-20T14:41:27;98330.81;;;11.75;66.24
14790;BME280;7486;51.010;10.366;2022-10-20T14:44:05;98333.53;;;11.99;65.58
14790;BME280;7486;51.010;10.366;2022-10-20T14:46:44;98329.75;;;12.20;64.38
14790;BME280;7486;51.010;10.366;2022-10-20T14:49:26;98315.59;;;12.26;62.24
14790;BME280;7486;51.010;10.366;2022-10-20T14:51:54;98319.59;;;12.10;62.20
14790;BME280;7486;51.010;10.366;2022-10-20T14:54:34;98315.31;;;12.09;63.40
14790;BME280;7486;51.010;10.366;2022-10-20T14:59:49;98323.81;;;12.24;64.48
14790;BME280;7486;51.010;10.366;2022-10-20T15:02:22;98316.63;;;12.32;64.45
14790;BME280;7486;51.010;10.366;2022-10-20T15:04:50;98324.56;;;12.32;64.25
14790;BME280;7486;51.010;10.366;2022-10-20T15:07:27;98310.47;;;12.31;64.69
14790;BME280;7486;51.010;10.366;2022-10-20T15:10:14;98314.53;;;12.34;64.26
14790;BME280;7486;51.010;10.366;2022-10-20T15:12:45;98307.25;;;12.29;64.40
14790;BME280;7486;51.010;10.366;2022-10-20T15:22:56;98307.91;;;12.18;63.25
14790;BME280;7486;51.010;10.366;2022-10-20T15:25:25;98292.66;;;12.07;64.05
14790;BME280;7486;51.010;10.366;2022-10-20T15:27:56;98296.28;;;12.19;64.25
14790;BME280;7486;51.010;10.366;2022-10-20T15:30:25;98292.81;;;12.18;64.61
14790;BME280;7486;51.010;10.366;2022-10-20T15:32:52;98280.34;;;12.19;63.86
14790;BME280;7486;51.010;10.366;2022-10-20T15:35:21;98269.91;;;11.86;65.62
14790;BME280;7486;51.010;10.366;2022-10-20T15:37:50;98279.00;;;11.65;66.30
14790;BME280;7486;51.010;10.366;2022-10-20T15:40:18;98274.31;;;11.67;66.09
14790;BME280;7486;51.010;10.366;2022-10-20T15:42:46;98265.94;;;11.70;66.13
14790;BME280;7486;51.010;10.366;2022-10-20T15:45:21;98260.78;;;11.76;66.33